Time;durP1;ratioP1;P1;durP2;ratioP2;P2;SDS_P1;SDS_P2;PMS_P1;PMS_P2;Temp;Humidity;BMP_temperature;BMP_pressure;BME280_temperature;BME280_humidity;BME280_pressure;Samples;Min_cycle;Max_cycle;Signal;HPM_P1;HPM_P2
2022/08/24 00:00:13;;;;;;;11.30;7.73;;;;;;;20.67;55.12;100171.34;4973503;28;20263;-75
2022/08/24 00:02:38;;;;;;;31.77;26.90;;;;;;;20.63;55.17;100170.81;5008022;28;20194;-74
2022/08/24 00:05:05;;;;;;;25.87;21.87;;;;;;;20.64;55.44;100172.47;4995866;28;20555;-74
2022/08/24 00:07:30;;;;;;;27.07;24.27;;;;;;;20.61;55.60;100172.72;4995262;28;20222;-74
2022/08/24 00:09:56;;;;;;;25.70;22.77;;;;;;;20.59;55.47;100166.84;4995645;28;20580;-74
2022/08/24 00:12:22;;;;;;;43.67;37.67;;;;;;;20.51;56.61;100173.78;5000755;28;20300;-75
2022/08/24 00:14:47;;;;;;;66.63;57.83;;;;;;;20.40;56.99;100170.38;4994954;28;20190;-76
2022/08/24 00:17:12;;;;;;;18.30;15.07;;;;;;;20.37;56.68;100175.09;4995582;28;20183;-76
2022/08/24 00:19:38;;;;;;;20.63;12.47;;;;;;;20.30;56.83;100167.00;5010576;28;20678;-76
2022/08/24 00:22:05;;;;;;;72.87;63.73;;;;;;;20.30;57.62;100169.63;5000282;28;20277;-75
2022/08/24 00:24:30;;;;;;;6.10;5.47;;;;;;;20.23;57.12;100164.16;4994938;28;20616;-74
2022/08/24 00:26:56;;;;;;;81.70;71.40;;;;;;;20.26;57.58;100161.25;4990478;28;20231;-76
2022/08/24 00:29:22;;;;;;;30.50;26.17;;;;;;;20.08;57.89;100169.06;4986970;28;20624;-76
2022/08/24 00:31:48;;;;;;;39.77;32.87;;;;;;;20.08;57.84;100170.81;4995384;28;20242;-76
2022/08/24 00:34:13;;;;;;;11.60;9.30;;;;;;;20.04;57.97;100169.47;4984843;28;20191;-76
2022/08/24 00:36:40;;;;;;;44.97;38.60;;;;;;;20.01;58.63;100165.38;5013084;28;20198;-75
2022/08/24 00:39:06;;;;;;;10.40;7.80;;;;;;;19.98;58.29;100169.09;4996031;28;20194;-76
2022/08/24 00:41:33;;;;;;;11.90;7.73;;;;;;;19.92;58.38;100176.66;4996385;28;20214;-75
2022/08/24 00:44:03;;;;;;;6.27;5.07;;;;;;;19.91;58.91;100170.63;4976525;28;20188;-76
2022/08/24 00:46:57;;;;;;;6.50;4.53;;;;;;;19.69;59.44;100161.31;4985117;28;20227;-76
2022/08/24 00:49:36;;;;;;;7.40;4.03;;;;;;;19.72;59.26;100168.03;5009453;28;20186;-76
2022/08/24 00:52:09;;;;;;;9.83;6.20;;;;;;;19.68;59.85;100173.53;5005899;28;20226;-76
2022/08/24 00:54:39;;;;;;;13.27;10.33;;;;;;;19.71;60.43;100169.00;4982036;28;20176;-76
2022/08/24 00:57:09;;;;;;;44.30;37.30;;;;;;;19.76;60.13;100165.00;5009595;28;20176;-75
2022/08/24 00:59:42;;;;;;;9.90;8.03;;;;;;;19.68;60.74;100172.72;4994312;28;20526;-76
2022/08/24 01:02:12;;;;;;;11.57;4.83;;;;;;;19.63;60.47;100165.28;5000296;28;20238;-75
2022/08/24 01:04:45;;;;;;;11.83;8.17;;;;;;;19.55;61.04;100173.03;4990406;28;20194;-76
2022/08/24 01:07:10;;;;;;;8.80;4.83;;;;;;;19.57;61.50;100170.25;4986975;28;20604;-74
2022/08/24 01:13:53;;;;;;;11.63;8.23;;;;;;;19.28;62.91;100168.53;4980929;28;20215;-75
2022/08/24 01:18:48;;;;;;;6.37;4.47;;;;;;;19.31;63.20;100161.25;4995146;28;20250;-75
2022/08/24 01:19:35;;;;;;;11.33;6.27;;;;;;;19.17;63.97;100165.09;4986853;28;20238;-75
2022/08/24 01:22:19;;;;;;;51.37;42.90;;;;;;;19.21;64.87;100170.03;4998025;28;20258;-75
2022/08/24 01:24:45;;;;;;;10.67;7.47;;;;;;;19.19;64.94;100170.19;4993609;28;20175;-76
2022/08/24 01:27:10;;;;;;;36.00;30.60;;;;;;;19.10;66.01;100171.84;4994075;28;20203;-75
2022/08/24 01:29:36;;;;;;;8.67;5.73;;;;;;;19.02;66.08;100176.91;4992928;28;20182;-76
2022/08/24 01:32:02;;;;;;;17.23;15.27;;;;;;;18.99;66.30;100180.59;4993591;28;20219;-76
2022/08/24 01:34:28;;;;;;;9.17;7.30;;;;;;;19.02;66.48;100177.72;4989313;28;20210;-76
2022/08/24 01:36:55;;;;;;;13.77;9.93;;;;;;;18.93;67.18;100185.53;4994905;28;20270;-76
2022/08/24 01:39:45;;;;;;;34.73;30.97;;;;;;;18.72;68.80;100181.22;4990161;28;20232;-75
2022/08/24 01:42:13;;;;;;;17.37;14.17;;;;;;;18.72;69.22;100183.84;4976912;28;20289;-75
2022/08/24 01:44:41;;;;;;;11.77;9.70;;;;;;;18.71;68.76;100185.59;4993398;28;20183;-76
2022/08/24 01:47:09;;;;;;;13.47;10.73;;;;;;;18.70;69.30;100188.34;4993557;28;20211;-75
2022/08/24 01:49:38;;;;;;;22.17;18.33;;;;;;;18.61;68.66;100189.97;4993610;28;20666;-74
2022/08/24 01:52:05;;;;;;;11.73;8.03;;;;;;;18.60;68.27;100188.31;5004472;28;20250;-74
2022/08/24 01:54:32;;;;;;;12.03;9.40;;;;;;;18.55;68.72;100190.50;4991948;28;20262;-74
2022/08/24 01:56:58;;;;;;;7.70;5.63;;;;;;;18.51;67.92;100186.53;4989518;28;20347;-74
2022/08/24 01:59:24;;;;;;;6.37;4.57;;;;;;;18.41;69.09;100191.72;4991603;28;20184;-75
2022/08/24 02:01:55;;;;;;;11.87;5.17;;;;;;;18.34;70.30;100191.41;4981733;28;20232;-74
2022/08/24 02:04:21;;;;;;;7.73;4.43;;;;;;;18.39;70.66;100186.66;4989116;28;20187;-75
2022/08/24 02:06:46;;;;;;;11.93;8.33;;;;;;;18.42;71.03;100189.91;4989053;28;20620;-75
2022/08/24 02:09:12;;;;;;;8.30;6.00;;;;;;;18.37;71.97;100188.53;4986925;28;20187;-75
2022/08/24 02:11:38;;;;;;;6.73;4.33;;;;;;;18.28;72.32;100188.50;4995353;28;20270;-75
2022/08/24 02:14:04;;;;;;;26.57;20.40;;;;;;;18.27;72.44;100194.66;4996827;28;20187;-74
2022/08/24 02:16:30;;;;;;;17.00;10.40;;;;;;;18.25;73.06;100200.00;4992902;28;20527;-75
2022/08/24 02:18:55;;;;;;;9.87;7.50;;;;;;;18.23;73.12;100192.34;4993043;28;20203;-74
2022/08/24 02:21:21;;;;;;;5.70;4.70;;;;;;;18.20;73.13;100197.78;4992930;28;20682;-74
2022/08/24 02:23:46;;;;;;;29.63;26.43;;;;;;;18.20;73.43;100196.97;4988559;28;20632;-74
2022/08/24 02:26:12;;;;;;;14.30;10.83;;;;;;;18.20;73.18;100205.59;5003168;28;20195;-75
2022/08/24 02:28:38;;;;;;;15.40;12.70;;;;;;;18.11;72.64;100209.00;4993229;28;20630;-74
2022/08/24 02:31:05;;;;;;;8.17;6.57;;;;;;;18.19;72.35;100208.34;5001331;28;20239;-74
2022/08/24 02:33:34;;;;;;;19.37;14.37;;;;;;;18.25;72.10;100207.81;4989398;28;20929;-74
2022/08/24 02:36:00;;;;;;;11.50;5.27;;;;;;;18.26;72.16;100203.44;4990202;28;20267;-74
2022/08/24 02:38:26;;;;;;;8.63;6.63;;;;;;;18.17;72.97;100205.03;4987774;28;20323;-74
2022/08/24 02:40:51;;;;;;;41.97;37.57;;;;;;;18.05;74.90;100206.91;4973209;28;20321;-74
2022/08/24 02:43:17;;;;;;;26.07;21.57;;;;;;;18.02;73.90;100201.97;4988426;28;20190;-75
2022/08/24 02:45:44;;;;;;;26.63;21.73;;;;;;;18.02;72.62;100205.41;4990132;28;20253;-75
2022/08/24 02:48:11;;;;;;;13.73;5.40;;;;;;;18.03;72.30;100208.81;4992602;28;20222;-75
2022/08/24 02:50:41;;;;;;;32.03;28.67;;;;;;;18.00;71.89;100198.69;4986882;28;20245;-74
2022/08/24 02:53:07;;;;;;;27.13;20.57;;;;;;;17.97;71.32;100193.72;5009023;28;20234;-73
2022/08/24 02:55:32;;;;;;;28.63;21.53;;;;;;;17.91;72.17;100197.63;4987822;28;20668;-74
2022/08/24 02:57:58;;;;;;;21.27;18.90;;;;;;;17.86;72.33;100203.22;4992267;28;20266;-74
2022/08/24 03:00:23;;;;;;;14.80;10.53;;;;;;;17.91;71.74;100206.25;4972203;28;20251;-74
2022/08/24 03:02:50;;;;;;;11.83;9.07;;;;;;;17.92;71.35;100207.06;4993711;28;20198;-73
2022/08/24 03:05:16;;;;;;;6.93;4.97;;;;;;;17.97;70.55;100214.53;4987421;28;20194;-74
2022/08/24 03:07:42;;;;;;;13.93;8.90;;;;;;;17.86;70.92;100213.63;4989032;28;20215;-75
2022/08/24 03:10:07;;;;;;;12.60;9.37;;;;;;;17.82;72.43;100211.41;4982812;28;20262;-74
2022/08/24 03:12:33;;;;;;;20.40;16.10;;;;;;;17.78;72.87;100208.25;4990908;28;20187;-74
2022/08/24 03:15:01;;;;;;;15.13;13.50;;;;;;;17.83;72.15;100207.88;4987249;28;20184;-74
2022/08/24 03:17:29;;;;;;;17.67;14.87;;;;;;;17.84;71.90;100212.13;4990477;28;20310;-73
2022/08/24 03:19:55;;;;;;;13.57;10.67;;;;;;;17.82;72.61;100217.44;5007576;28;20229;-73
2022/08/24 03:22:20;;;;;;;11.40;5.97;;;;;;;17.83;72.91;100207.88;4997498;28;20222;-74
2022/08/24 03:24:46;;;;;;;16.13;11.47;;;;;;;17.75;73.88;100211.91;4990083;28;20183;-73
2022/08/24 03:27:11;;;;;;;38.70;25.13;;;;;;;17.77;74.18;100213.56;4987792;28;20305;-73
2022/08/24 03:29:36;;;;;;;30.83;27.50;;;;;;;17.80;73.63;100208.94;4985726;28;20627;-75
2022/08/24 03:32:03;;;;;;;24.77;18.53;;;;;;;17.79;74.03;100209.09;4988711;28;20606;-75
2022/08/24 03:34:28;;;;;;;11.57;10.13;;;;;;;17.75;72.90;100203.31;5000712;28;20195;-75
2022/08/24 03:36:54;;;;;;;15.07;12.27;;;;;;;17.80;72.79;100201.13;4980281;28;20760;-75
2022/08/24 03:39:19;;;;;;;9.93;6.90;;;;;;;17.71;73.60;100205.34;4991526;28;20691;-75
2022/08/24 03:41:44;;;;;;;15.50;13.27;;;;;;;17.69;74.43;100204.63;4992449;28;20701;-75
2022/08/24 03:44:10;;;;;;;9.63;7.70;;;;;;;17.73;74.55;100195.59;4991481;28;20180;-74
2022/08/24 03:46:37;;;;;;;13.37;11.47;;;;;;;17.75;74.58;100206.72;4987118;28;20206;-75
2022/08/24 03:49:07;;;;;;;8.43;6.80;;;;;;;17.75;74.70;100211.91;4995939;28;20310;-75
2022/08/24 03:51:34;;;;;;;11.03;7.83;;;;;;;17.71;74.95;100200.13;4999072;28;20569;-75
2022/08/24 03:54:00;;;;;;;27.10;21.53;;;;;;;17.69;75.85;100198.63;4997958;28;20695;-75
2022/08/24 03:56:25;;;;;;;13.07;8.47;;;;;;;17.67;76.45;100200.50;4995734;28;20303;-76
2022/08/24 03:58:51;;;;;;;16.33;12.10;;;;;;;17.57;77.11;100203.03;4996109;28;20527;-75
2022/08/24 04:01:17;;;;;;;10.50;7.27;;;;;;;17.63;76.18;100201.72;4995079;28;20221;-75
2022/08/24 04:03:45;;;;;;;28.70;20.23;;;;;;;17.54;76.76;100201.53;4991414;28;20184;-75
2022/08/24 04:06:11;;;;;;;6.10;4.17;;;;;;;17.59;75.77;100201.16;4992374;28;20182;-75
2022/08/24 04:08:38;;;;;;;9.97;8.43;;;;;;;17.59;75.83;100209.75;4991292;28;20183;-75
2022/08/24 04:11:03;;;;;;;15.77;8.80;;;;;;;17.60;75.95;100208.00;4989207;28;20230;-75
2022/08/24 04:13:30;;;;;;;40.90;35.07;;;;;;;17.61;77.08;100207.03;4991136;28;20495;-75
2022/08/24 04:15:57;;;;;;;13.03;8.27;;;;;;;17.63;76.17;100199.94;4990003;28;20175;-75
2022/08/24 04:18:23;;;;;;;7.90;7.10;;;;;;;17.69;75.85;100204.63;4995211;28;20227;-75
2022/08/24 04:20:48;;;;;;;8.20;4.23;;;;;;;17.70;76.32;100205.44;4990980;28;20253;-74
2022/08/24 04:23:14;;;;;;;6.83;5.90;;;;;;;17.73;76.68;100207.81;5004482;28;20179;-75
2022/08/24 04:25:45;;;;;;;8.70;5.07;;;;;;;17.77;77.94;100203.16;4990202;28;20180;-75
2022/08/24 04:28:13;;;;;;;8.27;5.37;;;;;;;17.67;79.06;100200.50;4992585;28;20195;-75
2022/08/24 04:30:41;;;;;;;10.73;7.40;;;;;;;17.79;78.64;100194.28;4991249;28;20230;-75
2022/08/24 04:33:07;;;;;;;8.30;6.67;;;;;;;17.79;79.00;100204.69;4993191;28;20176;-76
2022/08/24 04:35:39;;;;;;;11.07;7.67;;;;;;;17.72;79.32;100206.16;4989006;28;20691;-75
2022/08/24 04:38:05;;;;;;;7.37;5.13;;;;;;;17.74;79.15;100210.28;4990116;28;20296;-75
2022/08/24 04:40:31;;;;;;;8.53;5.73;;;;;;;17.73;77.26;100213.81;4985472;28;20705;-74
2022/08/24 04:42:57;;;;;;;5.70;4.50;;;;;;;17.90;77.47;100211.59;5006729;28;20183;-74
2022/08/24 04:45:24;;;;;;;20.60;16.83;;;;;;;17.83;79.22;100215.66;4994515;28;20588;-75
2022/08/24 04:47:49;;;;;;;7.43;5.67;;;;;;;17.94;77.00;100210.41;4994577;28;20678;-74
2022/08/24 04:50:14;;;;;;;7.97;4.07;;;;;;;17.98;75.88;100217.00;4983699;28;20175;-56
2022/08/24 04:52:40;;;;;;;5.93;4.63;;;;;;;18.27;74.51;100223.31;5008290;28;20682;-56
2022/08/24 04:55:06;;;;;;;6.77;5.70;;;;;;;18.33;74.81;100220.19;4994058;28;20184;-56
2022/08/24 04:57:33;;;;;;;12.80;9.50;;;;;;;18.35;75.89;100220.88;4994702;28;20201;-56
2022/08/24 04:59:58;;;;;;;7.60;5.90;;;;;;;18.54;73.39;100230.53;4994484;28;20191;-56
2022/08/24 05:02:24;;;;;;;5.40;3.03;;;;;;;18.81;70.32;100229.91;5000108;28;20227;-56
2022/08/24 05:04:50;;;;;;;10.07;7.20;;;;;;;18.78;70.59;100232.81;4994836;28;20190;-56
2022/08/24 05:07:17;;;;;;;12.97;8.07;;;;;;;18.89;71.48;100237.09;4994447;28;20204;-56
2022/08/24 05:09:43;;;;;;;8.37;6.40;;;;;;;19.06;70.08;100245.22;4993030;28;20171;-56
2022/08/24 05:12:09;;;;;;;7.43;5.13;;;;;;;19.11;70.54;100243.84;4998898;28;20329;-56
2022/08/24 05:14:34;;;;;;;5.60;3.93;;;;;;;19.15;69.97;100245.25;4990414;28;20184;-56
2022/08/24 05:17:00;;;;;;;6.83;3.53;;;;;;;19.28;69.00;100244.16;4994336;28;20191;-55
2022/08/24 05:19:25;;;;;;;6.10;4.07;;;;;;;19.36;68.67;100257.31;4994238;28;20200;-56
2022/08/24 05:21:50;;;;;;;5.53;3.73;;;;;;;19.55;67.44;100251.28;4997913;28;20218;-56
2022/08/24 05:24:16;;;;;;;5.73;3.40;;;;;;;19.56;67.09;100247.72;4989392;28;20183;-56
2022/08/24 05:26:42;;;;;;;5.97;3.77;;;;;;;19.68;66.93;100240.56;4994020;28;20218;-56
2022/08/24 05:29:08;;;;;;;5.57;3.70;;;;;;;19.79;67.20;100252.63;4994236;28;20225;-58
2022/08/24 05:31:33;;;;;;;6.17;3.30;;;;;;;19.84;66.61;100253.88;4988836;28;20682;-55
2022/08/24 05:34:01;;;;;;;8.50;3.63;;;;;;;19.82;66.82;100255.78;4996321;28;20229;-56
2022/08/24 05:36:29;;;;;;;8.63;3.30;;;;;;;19.90;66.87;100254.31;4996804;28;20187;-56
2022/08/24 05:38:57;;;;;;;7.27;5.93;;;;;;;19.99;66.41;100256.88;4993643;28;20195;-56
2022/08/24 05:41:23;;;;;;;9.53;5.47;;;;;;;19.99;68.49;100259.50;4993779;28;20214;-56
2022/08/24 05:43:49;;;;;;;5.60;3.17;;;;;;;20.10;67.66;100257.69;4998260;28;20275;-56
2022/08/24 05:46:15;;;;;;;5.20;3.33;;;;;;;20.05;67.02;100254.69;4993220;28;20220;-55
2022/08/24 05:48:40;;;;;;;4.10;2.60;;;;;;;20.14;66.21;100256.41;5008584;28;20179;-56
2022/08/24 05:51:07;;;;;;;6.10;2.90;;;;;;;20.41;65.35;100253.03;4991394;28;20230;-56
2022/08/24 05:53:33;;;;;;;3.67;2.57;;;;;;;20.39;67.06;100260.19;4995314;28;20554;-55
2022/08/24 05:56:02;;;;;;;5.93;2.97;;;;;;;20.52;65.63;100261.66;4990518;28;20279;-56
2022/08/24 05:58:27;;;;;;;6.37;2.53;;;;;;;20.61;65.07;100261.59;4993502;28;20191;-56
2022/08/24 06:00:53;;;;;;;7.60;2.77;;;;;;;20.87;64.19;100263.56;4989523;28;20237;-56
2022/08/24 06:03:18;;;;;;;5.03;2.70;;;;;;;20.94;63.45;100264.59;4988714;28;20176;-56
2022/08/24 06:05:44;;;;;;;3.63;2.30;;;;;;;21.11;62.82;100265.59;4986944;28;20245;-56
2022/08/24 06:08:10;;;;;;;11.77;2.80;;;;;;;21.42;61.90;100269.63;4992887;28;20607;-56
2022/08/24 06:10:40;;;;;;;6.80;3.00;;;;;;;21.66;60.70;100268.25;5000914;28;20230;-56
2022/08/24 06:13:05;;;;;;;4.87;2.40;;;;;;;21.84;59.77;100269.00;5003348;28;20670;-56
2022/08/24 06:15:31;;;;;;;9.70;2.70;;;;;;;21.72;60.38;100276.31;4992776;28;20191;-56
2022/08/24 06:17:56;;;;;;;5.73;2.10;;;;;;;21.95;59.63;100270.56;4992974;28;20207;-56
2022/08/24 06:20:22;;;;;;;6.40;2.60;;;;;;;22.07;59.02;100266.72;4985097;28;20235;-56
2022/08/24 06:22:47;;;;;;;12.70;2.10;;;;;;;22.00;59.60;100272.72;5005601;28;20187;-56
2022/08/24 06:27:56;;;;;;;5.57;2.70;;;;;;;22.18;58.64;100272.69;4990487;28;20226;-56
2022/08/24 06:30:21;;;;;;;2.57;1.83;;;;;;;22.06;58.13;100267.69;4980142;28;20661;-56
2022/08/24 06:32:47;;;;;;;6.03;2.60;;;;;;;22.18;57.78;100270.88;5006454;28;20180;-55
2022/08/24 06:35:12;;;;;;;4.57;1.70;;;;;;;22.16;57.82;100266.75;4994855;28;20326;-56
2022/08/24 06:37:38;;;;;;;5.43;2.23;;;;;;;22.37;56.46;100269.00;4993237;28;20191;-55
2022/08/24 06:40:03;;;;;;;3.07;2.00;;;;;;;22.47;55.98;100267.09;4997597;28;20224;-56
2022/08/24 06:42:30;;;;;;;3.50;1.77;;;;;;;22.70;55.40;100272.59;5007806;28;20196;-56
2022/08/24 06:44:55;;;;;;;2.83;2.03;;;;;;;22.92;54.48;100277.41;4992623;28;20183;-56
2022/08/24 06:47:21;;;;;;;4.67;1.97;;;;;;;23.08;53.16;100276.63;4992533;28;20238;-56
2022/08/24 06:49:46;;;;;;;6.77;2.13;;;;;;;23.43;51.78;100272.09;4987903;28;20255;-56
2022/08/24 06:52:12;;;;;;;5.50;1.70;;;;;;;23.72;50.98;100274.25;4989057;28;20318;-56
2022/08/24 06:54:37;;;;;;;2.47;2.00;;;;;;;23.93;49.75;100279.00;4979131;28;20179;-56
2022/08/24 06:57:04;;;;;;;5.43;2.30;;;;;;;24.53;48.18;100279.47;4981534;28;20287;-56
2022/08/24 06:59:30;;;;;;;5.00;2.40;;;;;;;24.68;46.61;100279.59;4983709;28;20256;-56
2022/08/24 07:01:56;;;;;;;5.37;2.20;;;;;;;24.59;46.45;100281.41;4968164;28;20250;-56
2022/08/24 07:04:23;;;;;;;5.30;1.87;;;;;;;24.55;47.41;100290.66;4991890;28;20270;-56
2022/08/24 07:06:49;;;;;;;3.83;2.00;;;;;;;24.91;46.80;100281.47;4984271;28;20219;-56
2022/08/24 07:09:15;;;;;;;5.45;1.95;;;;;;;25.17;45.41;100290.84;4989295;28;20180;-56
2022/08/24 07:11:40;;;;;;;9.10;2.10;;;;;;;25.69;43.89;100298.03;4985477;28;20238;-56
2022/08/24 07:14:06;;;;;;;4.82;1.90;;;;;;;25.50;44.45;100293.25;4988259;28;20247;-57
2022/08/24 07:16:32;;;;;;;5.85;1.80;;;;;;;25.74;43.61;100297.53;4993101;28;20218;-56
2022/08/24 07:18:58;;;;;;;8.85;2.00;;;;;;;25.90;43.06;100301.78;4994376;28;20211;-56
2022/08/24 07:21:23;;;;;;;5.22;1.98;;;;;;;26.18;42.07;100309.94;4980848;28;20238;-57
2022/08/24 07:23:54;;;;;;;3.90;2.00;;;;;;;26.16;41.71;100309.31;4987932;28;20585;-56
2022/08/24 07:26:21;;;;;;;8.40;2.08;;;;;;;26.42;40.88;100302.78;4986987;28;20196;-56
2022/08/24 07:29:14;;;;;;;6.55;1.73;;;;;;;26.57;40.95;100306.22;4987301;28;20629;-57
2022/08/24 07:31:41;;;;;;;6.15;2.03;;;;;;;26.47;41.22;100308.31;4977390;28;20317;-57
2022/08/24 07:34:08;;;;;;;10.23;2.28;;;;;;;26.91;40.02;100301.34;4994909;28;20194;-56
2022/08/24 07:36:35;;;;;;;3.47;1.98;;;;;;;27.46;38.38;100309.66;4992623;28;20207;-58
2022/08/24 07:39:01;;;;;;;4.35;2.10;;;;;;;28.76;35.77;100303.94;4991910;28;20544;-56
2022/08/24 07:41:27;;;;;;;6.53;2.15;;;;;;;28.44;35.83;100308.06;4993133;28;20226;-56
2022/08/24 07:43:53;;;;;;;7.03;1.98;;;;;;;29.10;35.18;100315.47;4996526;28;20194;-56
2022/08/24 07:46:19;;;;;;;4.45;1.60;;;;;;;28.83;34.88;100317.22;4992147;28;20226;-56
2022/08/24 07:48:45;;;;;;;7.13;1.95;;;;;;;29.03;35.06;100319.13;4992106;28;20274;-56
2022/08/24 07:51:13;;;;;;;6.93;1.83;;;;;;;29.43;34.40;100317.34;4990533;28;20264;-56
2022/08/24 07:53:38;;;;;;;5.00;1.58;;;;;;;30.07;33.02;100307.13;4999012;28;20187;-57
2022/08/24 07:56:04;;;;;;;4.18;1.83;;;;;;;30.76;31.85;100312.00;4991001;28;20179;-56
2022/08/24 07:58:30;;;;;;;6.18;1.85;;;;;;;31.85;30.19;100322.53;4991620;28;20187;-57
2022/08/24 08:00:56;;;;;;;3.40;1.90;;;;;;;32.41;28.97;100325.22;4983414;28;20219;-55
2022/08/24 08:03:23;;;;;;;4.60;2.05;;;;;;;31.64;30.26;100325.59;5000007;28;20242;-56
2022/08/24 08:05:53;;;;;;;4.18;1.90;;;;;;;31.77;29.79;100321.97;4991294;28;20249;-56
2022/08/24 08:08:19;;;;;;;2.90;2.17;;;;;;;31.94;29.44;100327.56;4992106;28;20219;-56
2022/08/24 08:10:45;;;;;;;2.92;1.70;;;;;;;32.31;29.28;100327.59;4983201;28;20222;-56
2022/08/24 08:13:10;;;;;;;3.42;1.92;;;;;;;32.79;28.44;100334.00;4994863;28;20704;-58
2022/08/24 08:15:36;;;;;;;3.13;1.67;;;;;;;32.39;28.97;100337.97;4991377;28;20184;-56
2022/08/24 08:18:01;;;;;;;3.80;1.67;;;;;;;31.94;29.88;100338.19;4991692;28;20203;-56
2022/08/24 08:20:26;;;;;;;3.35;1.40;;;;;;;32.60;28.73;100341.19;4985146;28;20227;-57
2022/08/24 08:25:37;;;;;;;6.85;1.60;;;;;;;34.31;26.09;100338.13;4993228;28;20194;-57
2022/08/24 08:28:04;;;;;;;4.35;1.98;;;;;;;34.25;25.72;100348.72;4994650;28;20591;-57
2022/08/24 08:30:30;;;;;;;4.60;1.95;;;;;;;33.47;26.43;100350.69;4991960;28;20242;-57
2022/08/24 08:32:55;;;;;;;4.55;1.88;;;;;;;34.34;25.91;100348.34;5006229;28;20195;-57
2022/08/24 08:35:21;;;;;;;4.03;1.90;;;;;;;35.27;24.11;100340.22;4987499;28;20239;-56
2022/08/24 08:37:47;;;;;;;8.40;2.25;;;;;;;34.92;25.26;100343.91;4991791;28;20283;-57
2022/08/24 08:40:27;;;;;;;3.90;1.77;;;;;;;34.89;24.84;100337.19;4980206;28;20709;-57
2022/08/24 08:43:03;;;;;;;7.22;2.15;;;;;;;34.31;25.18;100338.97;5000434;28;20183;-57
2022/08/24 08:45:36;;;;;;;5.70;2.20;;;;;;;33.79;26.01;100342.34;4993893;28;20176;-57
2022/08/24 08:48:35;;;;;;;5.07;1.80;;;;;;;34.22;25.43;100330.50;4996916;28;20204;-57
2022/08/24 08:51:15;;;;;;;4.78;1.83;;;;;;;34.67;24.69;100339.69;4986583;28;20242;-56
2022/08/24 08:54:16;;;;;;;9.77;2.05;;;;;;;35.05;24.26;100338.22;4998419;28;20245;-57
2022/08/24 08:57:06;;;;;;;3.78;1.80;;;;;;;35.04;23.90;100336.63;4992067;28;20191;-57
2022/08/24 08:59:44;;;;;;;7.45;2.22;;;;;;;35.66;23.89;100340.31;4986017;28;20171;-57
2022/08/24 09:02:44;;;;;;;4.28;2.03;;;;;;;33.38;26.46;100342.22;4985191;28;20238;-57
2022/08/24 09:05:47;;;;;;;6.80;2.50;;;;;;;32.62;27.23;100342.59;4985603;28;20191;-57
2022/08/24 09:08:52;;;;;;;4.90;1.92;;;;;;;33.03;26.30;100337.56;4981612;28;20228;-57
2022/08/24 09:11:36;;;;;;;2.72;1.85;;;;;;;34.89;24.70;100331.84;4986176;28;20219;-57
2022/08/24 09:14:28;;;;;;;6.32;1.65;;;;;;;33.90;25.15;100335.41;4982713;28;20646;-56
2022/08/24 09:16:56;;;;;;;2.40;1.95;;;;;;;33.99;25.78;100333.19;4994085;28;20221;-55
2022/08/24 09:19:56;;;;;;;5.85;1.90;;;;;;;33.66;26.10;100330.03;4993998;28;20413;-56
2022/08/24 09:22:21;;;;;;;7.03;2.35;;;;;;;34.30;24.68;100333.84;4981183;28;20241;-57
2022/08/24 09:24:53;;;;;;;6.25;1.90;;;;;;;34.31;25.18;100336.28;4991631;28;20639;-57
2022/08/24 09:27:38;;;;;;;6.05;2.47;;;;;;;33.76;26.07;100332.94;4994173;28;20257;-56
2022/08/24 09:30:20;;;;;;;5.22;2.03;;;;;;;34.31;25.13;100330.94;4986638;28;20274;-57
2022/08/24 09:33:13;;;;;;;4.25;2.13;;;;;;;35.19;24.16;100324.56;4999934;28;20179;-57
2022/08/24 09:35:58;;;;;;;7.45;2.00;;;;;;;34.62;24.25;100325.41;4993444;28;20199;-57
2022/08/24 09:38:45;;;;;;;7.05;2.38;;;;;;;35.70;23.33;100329.91;4993203;28;20198;-57
2022/08/24 09:41:40;;;;;;;5.85;2.30;;;;;;;36.29;21.80;100331.25;4981509;28;20261;-57
2022/08/24 09:44:51;;;;;;;7.50;2.30;;;;;;;35.49;23.05;100326.13;4992066;28;20207;-56
2022/08/24 09:47:34;;;;;;;3.70;2.10;;;;;;;36.71;21.51;100327.19;4992013;28;20211;-57
2022/08/24 09:50:21;;;;;;;2.85;1.83;;;;;;;38.26;20.54;100340.63;4984581;28;20219;-57
2022/08/24 09:53:04;;;;;;;6.20;1.92;;;;;;;37.59;20.51;100339.50;4988143;28;20223;-57
2022/08/24 09:55:51;;;;;;;6.88;2.08;;;;;;;37.29;20.93;100347.03;4993197;28;20656;-57
2022/08/24 09:59:07;;;;;;;5.18;1.88;;;;;;;38.03;19.85;100336.53;4993313;28;20183;-57
2022/08/24 10:01:52;;;;;;;13.68;1.90;;;;;;;40.28;17.46;100336.06;4984802;28;20330;-57
2022/08/24 10:04:33;;;;;;;6.07;1.85;;;;;;;40.33;17.67;100327.94;5007249;28;20186;-57
2022/08/24 10:07:10;;;;;;;6.57;1.77;;;;;;;37.54;19.96;100329.53;5010034;28;20257;-57
2022/08/24 10:10:07;;;;;;;5.32;2.00;;;;;;;35.66;21.78;100323.44;5010385;28;20174;-57
2022/08/24 10:12:45;;;;;;;4.30;2.35;;;;;;;36.06;21.21;100309.03;4983984;28;20683;-57
2022/08/24 10:15:22;;;;;;;9.43;2.50;;;;;;;37.75;19.83;100313.56;5010304;28;20508;-57
2022/08/24 10:18:16;;;;;;;2.55;2.00;;;;;;;35.75;21.83;100307.78;5009839;28;20214;-57
2022/08/24 10:20:53;;;;;;;4.57;2.00;;;;;;;36.73;21.38;100307.13;4980009;28;20302;-57
2022/08/24 10:23:37;;;;;;;3.53;2.08;;;;;;;35.70;22.11;100303.97;5009852;28;20689;-57
2022/08/24 10:26:20;;;;;;;5.43;2.13;;;;;;;35.36;22.90;100303.19;5009234;28;20182;-57
2022/08/24 10:29:21;;;;;;;7.97;1.98;;;;;;;36.40;21.34;100303.56;5007986;28;20719;-57
2022/08/24 10:31:47;;;;;;;5.70;2.08;;;;;;;35.88;22.23;100304.78;4978535;28;20230;-57
2022/08/24 10:34:40;;;;;;;5.13;2.08;;;;;;;34.97;23.11;100300.41;5009374;28;20240;-57
2022/08/24 10:37:23;;;;;;;4.75;1.75;;;;;;;35.11;22.58;100301.72;5001804;28;20222;-59
2022/08/24 10:40:24;;;;;;;5.00;2.08;;;;;;;33.95;24.35;100295.50;4992851;28;20235;-57
2022/08/24 10:46:30;;;;;;;7.95;2.40;;;;;;;31.95;27.05;100290.09;4988373;28;20211;-57
2022/08/24 10:49:17;;;;;;;6.97;2.50;;;;;;;31.29;27.82;100284.31;4990288;28;20258;-57
2022/08/24 10:52:07;;;;;;;5.15;2.42;;;;;;;30.24;29.45;100283.63;4976454;28;20720;-57
2022/08/24 10:54:34;;;;;;;9.07;1.95;;;;;;;30.11;30.15;100284.47;4988511;28;20192;-57
2022/08/24 10:57:14;;;;;;;7.05;1.92;;;;;;;30.24;29.90;100277.50;4989818;28;20592;-57
2022/08/24 10:59:53;;;;;;;8.15;2.35;;;;;;;30.83;29.17;100270.31;4989961;28;20258;-58
2022/08/24 11:02:32;;;;;;;5.90;2.28;;;;;;;30.52;28.89;100277.22;4969498;28;20330;-57
2022/08/24 11:05:04;;;;;;;5.45;2.25;;;;;;;30.69;28.96;100274.09;4989087;28;20238;-57
2022/08/24 11:07:31;;;;;;;4.20;1.83;;;;;;;31.07;28.48;100273.25;4973282;28;20205;-57
2022/08/24 11:10:01;;;;;;;6.30;2.13;;;;;;;30.80;28.65;100275.22;4989424;28;20666;-57
2022/08/24 11:12:40;;;;;;;5.28;1.88;;;;;;;30.48;29.01;100273.34;4963611;28;20278;-57
2022/08/24 11:15:19;;;;;;;9.40;1.92;;;;;;;30.18;29.46;100275.69;4977709;28;20195;-57
2022/08/24 11:17:55;;;;;;;3.63;2.33;;;;;;;30.13;28.74;100273.69;4990429;28;20281;-57
2022/08/24 11:20:25;;;;;;;3.47;1.98;;;;;;;30.08;28.64;100269.00;4978298;28;20183;-58
2022/08/24 11:23:03;;;;;;;4.35;2.03;;;;;;;30.03;27.98;100266.16;5004225;28;20184;-58
2022/08/24 11:25:32;;;;;;;4.95;3.10;;;;;;;30.65;27.43;100262.25;4990846;28;20417;-58
2022/08/24 11:28:38;;;;;;;5.68;2.35;;;;;;;30.65;27.50;100260.44;4993020;28;20286;-58
2022/08/24 11:31:07;;;;;;;5.55;3.53;;;;;;;30.47;27.93;100261.09;4969516;28;20284;-58
2022/08/24 11:33:48;;;;;;;6.60;2.70;;;;;;;30.27;28.42;100248.72;4972993;28;20738;-59
2022/08/24 11:36:20;;;;;;;4.72;2.10;;;;;;;30.52;28.21;100258.63;4971754;28;20186;-59
2022/08/24 11:38:48;;;;;;;4.20;1.90;;;;;;;30.37;28.12;100256.22;4970335;28;20184;-58
2022/08/24 11:41:31;;;;;;;3.33;2.22;;;;;;;30.10;28.66;100252.88;4968877;28;20234;-57
2022/08/24 11:44:01;;;;;;;5.80;1.98;;;;;;;30.21;28.34;100252.22;4966324;28;20177;-59
2022/08/24 11:46:33;;;;;;;3.75;2.45;;;;;;;30.02;29.31;100255.72;4970312;28;20243;-58
2022/08/24 11:48:59;;;;;;;7.80;2.13;;;;;;;30.20;28.42;100241.81;4966466;28;20191;-58
2022/08/24 11:51:43;;;;;;;3.13;2.17;;;;;;;30.29;28.61;100245.03;4968761;28;20639;-58